sensor_id;sensor_type;location;lat;lon;timestamp;pressure;altitude;pressure_sealevel;temperature;humidity
76973;BME280;65907;53.640;10.050;2024-01-30T00:00:22;102162.47;;;21.76;36.59
76973;BME280;65907;53.640;10.050;2024-01-30T00:02:47;102166.88;;;21.76;36.66
76973;BME280;65907;53.640;10.050;2024-01-30T00:05:12;102159.97;;;21.75;36.55
76973;BME280;65907;53.640;10.050;2024-01-30T00:07:38;102158.47;;;21.71;36.85
76973;BME280;65907;53.640;10.050;2024-01-30T00:10:03;102161.84;;;21.73;36.48
76973;BME280;65907;53.640;10.050;2024-01-30T00:12:28;102164.34;;;21.74;36.48
76973;BME280;65907;53.640;10.050;2024-01-30T00:14:53;102167.16;;;21.71;36.53
76973;BME280;65907;53.640;10.050;2024-01-30T00:17:19;102165.41;;;21.72;36.39
76973;BME280;65907;53.640;10.050;2024-01-30T00:19:47;102157.41;;;21.73;36.56
76973;BME280;65907;53.640;10.050;2024-01-30T00:22:12;102157.34;;;21.75;36.29
76973;BME280;65907;53.640;10.050;2024-01-30T00:24:37;102149.47;;;21.75;36.16
76973;BME280;65907;53.640;10.050;2024-01-30T00:27:02;102148.75;;;21.73;36.40
76973;BME280;65907;53.640;10.050;2024-01-30T00:29:28;102140.91;;;21.73;36.40
76973;BME280;65907;53.640;10.050;2024-01-30T00:31:56;102142.94;;;21.68;36.37
76973;BME280;65907;53.640;10.050;2024-01-30T00:34:23;102142.03;;;21.69;36.30
76973;BME280;65907;53.640;10.050;2024-01-30T00:36:48;102148.94;;;21.70;36.26
76973;BME280;65907;53.640;10.050;2024-01-30T00:39:16;102143.88;;;21.67;36.35
76973;BME280;65907;53.640;10.050;2024-01-30T00:41:41;102144.91;;;21.64;36.35
76973;BME280;65907;53.640;10.050;2024-01-30T00:44:06;102143.88;;;21.67;36.27
76973;BME280;65907;53.640;10.050;2024-01-30T00:46:32;102144.06;;;21.63;36.35
76973;BME280;65907;53.640;10.050;2024-01-30T00:48:57;102143.22;;;21.63;36.11
76973;BME280;65907;53.640;10.050;2024-01-30T00:51:22;102136.50;;;21.59;36.24
76973;BME280;65907;53.640;10.050;2024-01-30T00:53:47;102141.63;;;21.60;36.25
76973;BME280;65907;53.640;10.050;2024-01-30T00:56:13;102139.13;;;21.59;36.25
76973;BME280;65907;53.640;10.050;2024-01-30T00:58:38;102145.31;;;21.58;36.25
76973;BME280;65907;53.640;10.050;2024-01-30T01:01:04;102146.13;;;21.58;36.25
76973;BME280;65907;53.640;10.050;2024-01-30T01:03:29;102148.09;;;21.55;36.15
76973;BME280;65907;53.640;10.050;2024-01-30T01:05:54;102142.22;;;21.51;36.41
76973;BME280;65907;53.640;10.050;2024-01-30T01:08:20;102141.19;;;21.54;36.14
76973;BME280;65907;53.640;10.050;2024-01-30T01:10:47;102141.28;;;21.52;36.19
76973;BME280;65907;53.640;10.050;2024-01-30T01:13:12;102141.50;;;21.49;36.21
76973;BME280;65907;53.640;10.050;2024-01-30T01:15:37;102142.22;;;21.51;36.34
76973;BME280;65907;53.640;10.050;2024-01-30T01:18:03;102145.88;;;21.48;36.06
76973;BME280;65907;53.640;10.050;2024-01-30T01:20:28;102145.13;;;21.46;36.34
76973;BME280;65907;53.640;10.050;2024-01-30T01:22:53;102152.97;;;21.46;36.13
76973;BME280;65907;53.640;10.050;2024-01-30T01:25:19;102148.59;;;21.47;36.27
76973;BME280;65907;53.640;10.050;2024-01-30T01:27:44;102150.44;;;21.45;36.35
76973;BME280;65907;53.640;10.050;2024-01-30T01:30:16;102150.63;;;21.42;36.38
76973;BME280;65907;53.640;10.050;2024-01-30T01:32:49;102154.19;;;21.41;36.36
76973;BME280;65907;53.640;10.050;2024-01-30T01:35:24;102156.06;;;21.39;36.22
76973;BME280;65907;53.640;10.050;2024-01-30T01:37:50;102154.50;;;21.36;36.29
76973;BME280;65907;53.640;10.050;2024-01-30T01:40:20;102145.06;;;21.33;36.31
76973;BME280;65907;53.640;10.050;2024-01-30T01:42:45;102146.75;;;21.34;36.45
76973;BME280;65907;53.640;10.050;2024-01-30T01:45:10;102143.38;;;21.32;36.52
76973;BME280;65907;53.640;10.050;2024-01-30T01:47:38;102145.06;;;21.33;36.47
76973;BME280;65907;53.640;10.050;2024-01-30T01:50:03;102141.97;;;21.27;36.38
76973;BME280;65907;53.640;10.050;2024-01-30T01:52:29;102137.59;;;21.27;36.35
76973;BME280;65907;53.640;10.050;2024-01-30T01:54:56;102130.56;;;21.28;36.56
76973;BME280;65907;53.640;10.050;2024-01-30T01:57:21;102128.34;;;21.22;36.71
76973;BME280;65907;53.640;10.050;2024-01-30T01:59:47;102138.16;;;21.18;36.51
76973;BME280;65907;53.640;10.050;2024-01-30T02:02:17;102128.63;;;21.17;36.43
76973;BME280;65907;53.640;10.050;2024-01-30T02:04:44;102128.63;;;21.17;36.53
76973;BME280;65907;53.640;10.050;2024-01-30T02:07:12;102127.06;;;21.14;36.61
76973;BME280;65907;53.640;10.050;2024-01-30T02:09:37;102123.69;;;21.12;36.61
76973;BME280;65907;53.640;10.050;2024-01-30T02:12:02;102114.06;;;21.13;36.39
76973;BME280;65907;53.640;10.050;2024-01-30T02:14:28;102118.47;;;21.12;36.56
76973;BME280;65907;53.640;10.050;2024-01-30T02:16:53;102115.84;;;21.12;36.59
76973;BME280;65907;53.640;10.050;2024-01-30T02:19:18;102106.59;;;21.06;36.63
76973;BME280;65907;53.640;10.050;2024-01-30T02:21:46;102103.25;;;21.04;36.72
76973;BME280;65907;53.640;10.050;2024-01-30T02:24:11;102108.66;;;21.01;36.71
76973;BME280;65907;53.640;10.050;2024-01-30T02:26:39;102108.47;;;21.04;36.77
76973;BME280;65907;53.640;10.050;2024-01-30T02:29:04;102098.03;;;21.04;36.54
76973;BME280;65907;53.640;10.050;2024-01-30T02:31:29;102104.38;;;21.00;36.68
76973;BME280;65907;53.640;10.050;2024-01-30T02:33:55;102100.09;;;20.99;36.82
76973;BME280;65907;53.640;10.050;2024-01-30T02:36:20;102093.25;;;20.97;36.86
76973;BME280;65907;53.640;10.050;2024-01-30T02:38:45;102093.34;;;20.95;36.72
76973;BME280;65907;53.640;10.050;2024-01-30T02:41:13;102094.28;;;20.94;36.99
76973;BME280;65907;53.640;10.050;2024-01-30T02:43:39;102088.84;;;20.97;36.66
76973;BME280;65907;53.640;10.050;2024-01-30T02:46:04;102097.00;;;20.92;36.83
76973;BME280;65907;53.640;10.050;2024-01-30T02:48:30;102087.38;;;20.93;36.86
76973;BME280;65907;53.640;10.050;2024-01-30T02:50:58;102082.13;;;20.93;36.76
76973;BME280;65907;53.640;10.050;2024-01-30T02:53:23;102082.25;;;20.91;37.04
76973;BME280;65907;53.640;10.050;2024-01-30T02:55:48;102071.88;;;20.90;36.95
76973;BME280;65907;53.640;10.050;2024-01-30T02:58:13;102080.47;;;20.92;36.84
76973;BME280;65907;53.640;10.050;2024-01-30T03:00:41;102070.19;;;20.89;36.78
76973;BME280;65907;53.640;10.050;2024-01-30T03:03:06;102071.22;;;20.86;36.84
76973;BME280;65907;53.640;10.050;2024-01-30T03:05:31;102076.56;;;20.85;36.47
76973;BME280;65907;53.640;10.050;2024-01-30T03:07:56;102064.13;;;20.88;36.83
76973;BME280;65907;53.640;10.050;2024-01-30T03:10:22;102069.44;;;20.87;36.64
76973;BME280;65907;53.640;10.050;2024-01-30T03:12:47;102063.47;;;20.85;36.72
76973;BME280;65907;53.640;10.050;2024-01-30T03:15:12;102061.59;;;20.87;36.66
76973;BME280;65907;53.640;10.050;2024-01-30T03:17:40;102056.78;;;20.81;36.71
76973;BME280;65907;53.640;10.050;2024-01-30T03:20:05;102060.00;;;20.84;36.93
76973;BME280;65907;53.640;10.050;2024-01-30T03:22:31;102055.09;;;20.80;36.56
76973;BME280;65907;53.640;10.050;2024-01-30T03:24:56;102060.13;;;20.83;36.82
76973;BME280;65907;53.640;10.050;2024-01-30T03:27:21;102060.75;;;20.86;36.90
76973;BME280;65907;53.640;10.050;2024-01-30T03:29:47;102057.50;;;20.83;36.50
76973;BME280;65907;53.640;10.050;2024-01-30T03:32:12;102056.66;;;20.82;36.74
76973;BME280;65907;53.640;10.050;2024-01-30T03:34:39;102056.81;;;20.79;36.75
76973;BME280;65907;53.640;10.050;2024-01-30T03:37:05;102058.34;;;20.83;36.66
76973;BME280;65907;53.640;10.050;2024-01-30T03:39:30;102053.28;;;20.80;36.49
76973;BME280;65907;53.640;10.050;2024-01-30T03:41:55;102055.72;;;20.83;36.57
76973;BME280;65907;53.640;10.050;2024-01-30T03:44:23;102050.69;;;20.80;36.58
76973;BME280;65907;53.640;10.050;2024-01-30T03:46:48;102054.19;;;20.79;36.73
76973;BME280;65907;53.640;10.050;2024-01-30T03:49:13;102053.47;;;20.77;36.83
76973;BME280;65907;53.640;10.050;2024-01-30T03:51:38;102052.72;;;20.75;36.54
76973;BME280;65907;53.640;10.050;2024-01-30T03:54:04;102051.69;;;20.77;36.77
76973;BME280;65907;53.640;10.050;2024-01-30T03:56:29;102050.19;;;20.73;36.79
76973;BME280;65907;53.640;10.050;2024-01-30T03:58:54;102050.19;;;20.73;36.88
76973;BME280;65907;53.640;10.050;2024-01-30T04:01:22;102048.31;;;20.75;36.62
76973;BME280;65907;53.640;10.050;2024-01-30T04:03:48;102059.53;;;20.77;36.67
76973;BME280;65907;53.640;10.050;2024-01-30T04:06:13;102047.50;;;20.75;36.65
76973;BME280;65907;53.640;10.050;2024-01-30T04:08:38;102042.44;;;20.72;36.86
76973;BME280;65907;53.640;10.050;2024-01-30T04:11:04;102046.75;;;20.73;36.76
76973;BME280;65907;53.640;10.050;2024-01-30T04:13:32;102040.59;;;20.74;36.69
76973;BME280;65907;53.640;10.050;2024-01-30T04:15:58;102040.66;;;20.72;36.68
76973;BME280;65907;53.640;10.050;2024-01-30T04:18:24;102044.97;;;20.73;36.88
76973;BME280;65907;53.640;10.050;2024-01-30T04:20:49;102051.31;;;20.69;36.69
76973;BME280;65907;53.640;10.050;2024-01-30T04:23:14;102040.13;;;20.67;36.62
76973;BME280;65907;53.640;10.050;2024-01-30T04:25:39;102042.53;;;20.70;36.46
76973;BME280;65907;53.640;10.050;2024-01-30T04:28:07;102040.78;;;20.71;36.58
76973;BME280;65907;53.640;10.050;2024-01-30T04:30:32;102036.56;;;20.68;36.74
76973;BME280;65907;53.640;10.050;2024-01-30T04:32:57;102042.72;;;20.67;36.68
76973;BME280;65907;53.640;10.050;2024-01-30T04:35:23;102041.16;;;20.65;36.59
76973;BME280;65907;53.640;10.050;2024-01-30T04:37:49;102050.75;;;20.64;36.62
76973;BME280;65907;53.640;10.050;2024-01-30T04:40:15;102050.56;;;20.67;36.67
76973;BME280;65907;53.640;10.050;2024-01-30T04:42:40;102054.22;;;20.65;36.61
76973;BME280;65907;53.640;10.050;2024-01-30T04:45:05;102057.66;;;20.65;36.58
76973;BME280;65907;53.640;10.050;2024-01-30T04:47:30;102054.97;;;20.67;36.63
76973;BME280;65907;53.640;10.050;2024-01-30T04:49:58;102043.66;;;20.66;36.54
76973;BME280;65907;53.640;10.050;2024-01-30T04:52:23;102044.78;;;20.62;36.75
76973;BME280;65907;53.640;10.050;2024-01-30T04:54:48;102044.03;;;20.60;36.84
76973;BME280;65907;53.640;10.050;2024-01-30T04:57:14;102046.38;;;20.65;36.80
76973;BME280;65907;53.640;10.050;2024-01-30T04:59:39;102039.56;;;20.62;36.71
76973;BME280;65907;53.640;10.050;2024-01-30T05:02:06;102044.03;;;20.60;36.69
76973;BME280;65907;53.640;10.050;2024-01-30T05:04:32;102041.44;;;20.60;36.69
76973;BME280;65907;53.640;10.050;2024-01-30T05:06:57;102034.53;;;20.59;36.66
76973;BME280;65907;53.640;10.050;2024-01-30T05:09:22;102039.84;;;20.57;36.92
76973;BME280;65907;53.640;10.050;2024-01-30T05:11:47;102041.50;;;20.58;36.82
76973;BME280;65907;53.640;10.050;2024-01-30T05:14:12;102043.31;;;20.58;36.63
76973;BME280;65907;53.640;10.050;2024-01-30T05:16:40;102038.25;;;20.55;36.73
76973;BME280;65907;53.640;10.050;2024-01-30T05:19:05;102038.34;;;20.53;36.60
76973;BME280;65907;53.640;10.050;2024-01-30T05:21:30;102041.63;;;20.57;36.83
76973;BME280;65907;53.640;10.050;2024-01-30T05:23:58;102043.75;;;20.50;36.80
76973;BME280;65907;53.640;10.050;2024-01-30T05:26:23;102050.56;;;20.53;36.75
76973;BME280;65907;53.640;10.050;2024-01-30T05:28:51;102041.16;;;20.50;36.74
76973;BME280;65907;53.640;10.050;2024-01-30T05:31:19;102037.50;;;20.53;36.68
76973;BME280;65907;53.640;10.050;2024-01-30T05:33:44;102043.56;;;20.53;36.60
76973;BME280;65907;53.640;10.050;2024-01-30T05:36:11;102037.50;;;20.53;36.60
76973;BME280;65907;53.640;10.050;2024-01-30T05:38:36;102036.84;;;20.49;36.58
76973;BME280;65907;53.640;10.050;2024-01-30T05:41:02;102032.44;;;20.49;36.45
76973;BME280;65907;53.640;10.050;2024-01-30T05:43:27;102037.69;;;20.49;36.70
76973;BME280;65907;53.640;10.050;2024-01-30T05:45:52;102038.63;;;20.48;36.89
76973;BME280;65907;53.640;10.050;2024-01-30T05:48:17;102035.91;;;20.50;36.82
76973;BME280;65907;53.640;10.050;2024-01-30T05:50:45;102037.78;;;20.48;36.71
76973;BME280;65907;53.640;10.050;2024-01-30T05:53:11;102033.50;;;20.47;36.93
76973;BME280;65907;53.640;10.050;2024-01-30T05:55:41;102041.41;;;20.45;36.73
76973;BME280;65907;53.640;10.050;2024-01-30T05:58:06;102037.13;;;20.44;36.72
76973;BME280;65907;53.640;10.050;2024-01-30T06:00:31;102043.00;;;20.48;36.95
76973;BME280;65907;53.640;10.050;2024-01-30T06:02:57;102034.31;;;20.47;36.74
76973;BME280;65907;53.640;10.050;2024-01-30T06:05:24;102034.31;;;20.47;36.58
76973;BME280;65907;53.640;10.050;2024-01-30T06:07:49;102029.22;;;20.46;36.64
76973;BME280;65907;53.640;10.050;2024-01-30T06:10:17;102035.44;;;20.43;36.48
76973;BME280;65907;53.640;10.050;2024-01-30T06:12:45;102032.75;;;20.45;36.94
76973;BME280;65907;53.640;10.050;2024-01-30T06:15:10;102034.63;;;20.43;36.65
76973;BME280;65907;53.640;10.050;2024-01-30T06:17:37;102028.53;;;20.42;36.83
76973;BME280;65907;53.640;10.050;2024-01-30T06:20:05;102027.72;;;20.42;36.91
76973;BME280;65907;53.640;10.050;2024-01-30T06:22:30;102022.66;;;20.39;36.84
76973;BME280;65907;53.640;10.050;2024-01-30T06:24:56;102027.78;;;20.40;36.49
76973;BME280;65907;53.640;10.050;2024-01-30T06:27:21;102026.94;;;20.40;36.68
76973;BME280;65907;53.640;10.050;2024-01-30T06:29:46;102019.22;;;20.38;36.72
76973;BME280;65907;53.640;10.050;2024-01-30T06:32:11;102027.88;;;20.39;36.98
76973;BME280;65907;53.640;10.050;2024-01-30T06:34:36;102015.66;;;20.39;36.71
76973;BME280;65907;53.640;10.050;2024-01-30T06:37:03;102022.66;;;20.39;36.66
76973;BME280;65907;53.640;10.050;2024-01-30T06:39:31;102017.63;;;20.35;36.98
76973;BME280;65907;53.640;10.050;2024-01-30T06:41:56;102020.16;;;20.37;36.82
76973;BME280;65907;53.640;10.050;2024-01-30T06:44:21;102018.47;;;20.36;36.74
76973;BME280;65907;53.640;10.050;2024-01-30T06:46:47;102014.94;;;20.37;36.75
76973;BME280;65907;53.640;10.050;2024-01-30T06:49:12;102009.97;;;20.32;36.74
76973;BME280;65907;53.640;10.050;2024-01-30T06:51:37;102022.94;;;20.34;36.84
76973;BME280;65907;53.640;10.050;2024-01-30T06:54:05;102019.41;;;20.35;36.95
76973;BME280;65907;53.640;10.050;2024-01-30T06:56:30;102022.00;;;20.35;36.92
76973;BME280;65907;53.640;10.050;2024-01-30T06:58:55;102023.78;;;20.34;36.58
76973;BME280;65907;53.640;10.050;2024-01-30T07:01:20;102022.94;;;20.34;36.96
76973;BME280;65907;53.640;10.050;2024-01-30T07:03:46;102019.47;;;20.33;36.72
76973;BME280;65907;53.640;10.050;2024-01-30T07:06:11;102013.31;;;20.34;36.49
76973;BME280;65907;53.640;10.050;2024-01-30T07:08:37;102018.66;;;20.33;36.78
76973;BME280;65907;53.640;10.050;2024-01-30T07:11:04;102020.41;;;20.32;36.72
76973;BME280;65907;53.640;10.050;2024-01-30T07:13:29;102016.03;;;20.33;36.76
76973;BME280;65907;53.640;10.050;2024-01-30T07:15:54;102021.53;;;20.28;36.67
76973;BME280;65907;53.640;10.050;2024-01-30T07:18:19;102019.66;;;20.30;36.88
76973;BME280;65907;53.640;10.050;2024-01-30T07:20:44;102018.00;;;20.29;36.90
76973;BME280;65907;53.640;10.050;2024-01-30T07:23:14;102015.38;;;20.29;36.67
76973;BME280;65907;53.640;10.050;2024-01-30T07:25:45;102014.53;;;20.29;36.65
76973;BME280;65907;53.640;10.050;2024-01-30T07:28:13;102016.22;;;20.30;36.95
76973;BME280;65907;53.640;10.050;2024-01-30T07:30:38;102016.31;;;20.28;36.73
76973;BME280;65907;53.640;10.050;2024-01-30T07:33:04;102016.41;;;20.27;36.79
76973;BME280;65907;53.640;10.050;2024-01-30T07:35:31;102017.31;;;20.26;36.68
76973;BME280;65907;53.640;10.050;2024-01-30T07:37:59;102011.91;;;20.29;36.85
76973;BME280;65907;53.640;10.050;2024-01-30T07:40:24;102014.53;;;20.29;36.71
76973;BME280;65907;53.640;10.050;2024-01-30T07:42:49;102015.31;;;20.31;36.48
76973;BME280;65907;53.640;10.050;2024-01-30T07:45:17;102009.88;;;20.34;36.52
76973;BME280;65907;53.640;10.050;2024-01-30T07:47:47;102012.59;;;20.32;36.62
76973;BME280;65907;53.640;10.050;2024-01-30T07:53:15;102009.97;;;20.32;36.62
76973;BME280;65907;53.640;10.050;2024-01-30T08:01:24;102009.16;;;20.32;36.84
76973;BME280;65907;53.640;10.050;2024-01-30T08:03:55;102005.59;;;20.33;36.80
76973;BME280;65907;53.640;10.050;2024-01-30T08:06:20;102009.16;;;20.32;37.14
76973;BME280;65907;53.640;10.050;2024-01-30T08:08:46;102002.25;;;20.31;37.23
76973;BME280;65907;53.640;10.050;2024-01-30T08:11:13;102003.06;;;20.31;36.97
76973;BME280;65907;53.640;10.050;2024-01-30T08:13:41;101997.84;;;20.31;37.06
76973;BME280;65907;53.640;10.050;2024-01-30T08:16:06;101997.09;;;20.29;37.09
76973;BME280;65907;53.640;10.050;2024-01-30T08:18:34;102002.25;;;20.31;37.08
76973;BME280;65907;53.640;10.050;2024-01-30T08:20:59;102002.06;;;20.34;37.34
76973;BME280;65907;53.640;10.050;2024-01-30T08:23:24;102002.13;;;20.32;37.04
76973;BME280;65907;53.640;10.050;2024-01-30T08:25:49;101995.91;;;20.35;37.12
76973;BME280;65907;53.640;10.050;2024-01-30T08:28:17;102001.13;;;20.35;37.05
76973;BME280;65907;53.640;10.050;2024-01-30T08:30:42;101997.66;;;20.34;37.26
76973;BME280;65907;53.640;10.050;2024-01-30T08:33:25;102010.72;;;20.34;37.36
76973;BME280;65907;53.640;10.050;2024-01-30T08:35:51;102010.72;;;20.34;37.18
76973;BME280;65907;53.640;10.050;2024-01-30T08:38:18;102011.66;;;20.33;37.24
76973;BME280;65907;53.640;10.050;2024-01-30T08:40:44;102015.31;;;20.31;37.19
76973;BME280;65907;53.640;10.050;2024-01-30T08:43:09;102008.22;;;20.33;37.51
76973;BME280;65907;53.640;10.050;2024-01-30T08:45:35;102008.22;;;20.33;37.01
76973;BME280;65907;53.640;10.050;2024-01-30T08:48:00;102012.50;;;20.34;37.55
76973;BME280;65907;53.640;10.050;2024-01-30T08:50:25;102008.28;;;20.31;37.56
76973;BME280;65907;53.640;10.050;2024-01-30T08:52:59;102002.31;;;20.29;37.63
76973;BME280;65907;53.640;10.050;2024-01-30T08:55:25;102004.84;;;20.31;37.38
76973;BME280;65907;53.640;10.050;2024-01-30T08:57:52;102002.25;;;20.31;37.49
76973;BME280;65907;53.640;10.050;2024-01-30T09:00:18;102004.84;;;20.31;37.46
76973;BME280;65907;53.640;10.050;2024-01-30T09:02:43;102001.38;;;20.30;37.62
76973;BME280;65907;53.640;10.050;2024-01-30T09:07:43;101994.41;;;20.31;37.21
76973;BME280;65907;53.640;10.050;2024-01-30T09:10:09;101996.16;;;20.30;37.48
76973;BME280;65907;53.640;10.050;2024-01-30T09:13:08;101999.72;;;20.29;37.34
76973;BME280;65907;53.640;10.050;2024-01-30T09:15:26;101997.94;;;20.30;37.48
76973;BME280;65907;53.640;10.050;2024-01-30T09:17:51;101995.16;;;20.33;37.72
76973;BME280;65907;53.640;10.050;2024-01-30T09:20:16;101992.53;;;20.33;37.31
76973;BME280;65907;53.640;10.050;2024-01-30T09:22:44;101990.56;;;20.37;37.53
76973;BME280;65907;53.640;10.050;2024-01-30T09:25:09;101997.47;;;20.38;37.51
76973;BME280;65907;53.640;10.050;2024-01-30T09:27:34;101996.53;;;20.39;37.63
76973;BME280;65907;53.640;10.050;2024-01-30T09:30:03;101995.59;;;20.40;37.48
76973;BME280;65907;53.640;10.050;2024-01-30T09:32:28;101990.38;;;20.40;37.68
76973;BME280;65907;53.640;10.050;2024-01-30T09:34:56;101993.91;;;20.39;37.97
76973;BME280;65907;53.640;10.050;2024-01-30T09:37:23;101996.72;;;20.35;37.73
76973;BME280;65907;53.640;10.050;2024-01-30T09:43:02;101999.06;;;20.40;38.30
76973;BME280;65907;53.640;10.050;2024-01-30T09:45:27;101996.44;;;20.40;37.92
76973;BME280;65907;53.640;10.050;2024-01-30T09:47:53;102001.69;;;20.40;38.00
76973;BME280;65907;53.640;10.050;2024-01-30T09:50:18;102001.88;;;20.37;37.87
76973;BME280;65907;53.640;10.050;2024-01-30T09:52:44;102002.69;;;20.38;38.07
76973;BME280;65907;53.640;10.050;2024-01-30T09:55:11;102004.56;;;20.35;37.84
76973;BME280;65907;53.640;10.050;2024-01-30T09:57:39;102006.41;;;20.33;37.95
76973;BME280;65907;53.640;10.050;2024-01-30T10:00:06;102007.63;;;20.28;38.13
76973;BME280;65907;53.640;10.050;2024-01-30T10:02:37;102002.69;;;20.23;38.06
76973;BME280;65907;53.640;10.050;2024-01-30T10:05:02;101995.41;;;20.28;38.24
76973;BME280;65907;53.640;10.050;2024-01-30T10:07:28;101998.78;;;20.30;37.94
76973;BME280;65907;53.640;10.050;2024-01-30T10:09:53;101996.25;;;20.29;37.97
76973;BME280;65907;53.640;10.050;2024-01-30T10:12:21;101990.94;;;20.30;38.06
76973;BME280;65907;53.640;10.050;2024-01-30T10:14:46;101996.09;;;20.32;37.90
76973;BME280;65907;53.640;10.050;2024-01-30T10:17:16;101989.06;;;20.32;38.02
76973;BME280;65907;53.640;10.050;2024-01-30T10:19:42;101990.88;;;20.32;38.03
76973;BME280;65907;53.640;10.050;2024-01-30T10:22:07;101985.63;;;20.32;37.91
76973;BME280;65907;53.640;10.050;2024-01-30T10:24:33;101988.13;;;20.33;37.79
76973;BME280;65907;53.640;10.050;2024-01-30T10:27:01;101988.13;;;20.33;37.92
76973;BME280;65907;53.640;10.050;2024-01-30T10:29:27;101975.19;;;20.32;37.86
76973;BME280;65907;53.640;10.050;2024-01-30T10:32:02;101977.81;;;20.32;37.87
76973;BME280;65907;53.640;10.050;2024-01-30T10:34:28;101972.66;;;20.30;37.76
76973;BME280;65907;53.640;10.050;2024-01-30T10:36:59;101977.69;;;20.33;37.53
76973;BME280;65907;53.640;10.050;2024-01-30T10:39:31;101967.34;;;20.32;37.88
76973;BME280;65907;53.640;10.050;2024-01-30T10:41:59;101971.72;;;20.31;37.72
76973;BME280;65907;53.640;10.050;2024-01-30T10:47:11;101967.44;;;20.30;37.75
76973;BME280;65907;53.640;10.050;2024-01-30T10:49:40;101977.06;;;20.30;37.50
76973;BME280;65907;53.640;10.050;2024-01-30T10:52:08;101966.69;;;20.28;37.51
76973;BME280;65907;53.640;10.050;2024-01-30T10:54:34;101972.72;;;20.29;37.74
76973;BME280;65907;53.640;10.050;2024-01-30T10:56:59;101973.59;;;20.29;37.58
76973;BME280;65907;53.640;10.050;2024-01-30T10:59:26;101969.22;;;20.30;37.50
76973;BME280;65907;53.640;10.050;2024-01-30T11:01:55;101966.59;;;20.30;37.79
76973;BME280;65907;53.640;10.050;2024-01-30T11:04:21;101969.22;;;20.30;37.60
76973;BME280;65907;53.640;10.050;2024-01-30T11:06:48;101971.06;;;20.28;37.65
76973;BME280;65907;53.640;10.050;2024-01-30T11:09:16;101964.16;;;20.27;37.81
76973;BME280;65907;53.640;10.050;2024-01-30T11:11:51;101961.38;;;20.30;37.79
76973;BME280;65907;53.640;10.050;2024-01-30T11:14:16;101957.06;;;20.29;37.59
76973;BME280;65907;53.640;10.050;2024-01-30T11:16:42;101960.59;;;20.28;37.53
76973;BME280;65907;53.640;10.050;2024-01-30T11:19:10;101952.78;;;20.28;37.67
76973;BME280;65907;53.640;10.050;2024-01-30T11:21:57;101949.34;;;20.27;37.91
76973;BME280;65907;53.640;10.050;2024-01-30T11:24:24;101955.38;;;20.28;37.63
76973;BME280;65907;53.640;10.050;2024-01-30T11:26:54;101962.28;;;20.29;37.66
76973;BME280;65907;53.640;10.050;2024-01-30T11:29:29;101956.25;;;20.28;37.68
76973;BME280;65907;53.640;10.050;2024-01-30T11:32:00;101957.25;;;20.26;37.88
76973;BME280;65907;53.640;10.050;2024-01-30T11:34:26;101960.59;;;20.28;37.71
76973;BME280;65907;53.640;10.050;2024-01-30T11:36:52;101952.97;;;20.25;37.52
76973;BME280;65907;53.640;10.050;2024-01-30T11:39:23;101944.19;;;20.26;37.75
76973;BME280;65907;53.640;10.050;2024-01-30T11:41:50;101938.22;;;20.24;37.65
76973;BME280;65907;53.640;10.050;2024-01-30T11:44:16;101938.97;;;20.26;37.64
76973;BME280;65907;53.640;10.050;2024-01-30T11:46:41;101942.50;;;20.25;37.74
76973;BME280;65907;53.640;10.050;2024-01-30T11:49:06;101941.78;;;20.23;37.68
76973;BME280;65907;53.640;10.050;2024-01-30T11:51:32;101927.03;;;20.22;37.88
76973;BME280;65907;53.640;10.050;2024-01-30T11:53:59;101920.88;;;20.23;37.53
76973;BME280;65907;53.640;10.050;2024-01-30T11:56:24;101914.72;;;20.24;37.75
76973;BME280;65907;53.640;10.050;2024-01-30T11:58:51;101914.84;;;20.22;37.46
76973;BME280;65907;53.640;10.050;2024-01-30T12:01:17;101904.38;;;20.22;37.88
76973;BME280;65907;53.640;10.050;2024-01-30T12:03:42;101901.78;;;20.22;37.67
76973;BME280;65907;53.640;10.050;2024-01-30T12:06:08;101898.41;;;20.20;37.85
76973;BME280;65907;53.640;10.050;2024-01-30T12:08:33;101893.19;;;20.20;37.75
76973;BME280;65907;53.640;10.050;2024-01-30T12:11:01;101890.59;;;20.20;37.67
76973;BME280;65907;53.640;10.050;2024-01-30T12:13:27;101888.78;;;20.20;37.85
76973;BME280;65907;53.640;10.050;2024-01-30T12:15:53;101886.94;;;20.23;37.89
76973;BME280;65907;53.640;10.050;2024-01-30T12:18:18;101915.66;;;20.23;37.45
76973;BME280;65907;53.640;10.050;2024-01-30T12:20:44;101912.22;;;20.22;37.83
76973;BME280;65907;53.640;10.050;2024-01-30T12:23:09;101931.31;;;20.23;37.57
76973;BME280;65907;53.640;10.050;2024-01-30T12:25:37;101931.31;;;20.23;37.60
76973;BME280;65907;53.640;10.050;2024-01-30T12:28:04;101926.09;;;20.23;37.79
76973;BME280;65907;53.640;10.050;2024-01-30T12:30:35;101929.66;;;20.22;37.64
76973;BME280;65907;53.640;10.050;2024-01-30T12:33:00;101935.81;;;20.20;37.84
76973;BME280;65907;53.640;10.050;2024-01-30T12:35:26;101932.38;;;20.20;37.73
76973;BME280;65907;53.640;10.050;2024-01-30T12:37:51;101936.75;;;20.19;37.79
76973;BME280;65907;53.640;10.050;2024-01-30T12:40:19;101934.22;;;20.18;37.88
76973;BME280;65907;53.640;10.050;2024-01-30T12:42:47;101917.63;;;20.19;38.08
76973;BME280;65907;53.640;10.050;2024-01-30T12:45:15;101931.53;;;20.19;37.84
76973;BME280;65907;53.640;10.050;2024-01-30T12:47:41;101924.53;;;20.20;37.91
76973;BME280;65907;53.640;10.050;2024-01-30T12:50:06;101933.31;;;20.19;37.73
76973;BME280;65907;53.640;10.050;2024-01-30T12:52:31;101931.53;;;20.19;37.77